sensor_id;sensor_type;location;lat;lon;timestamp;temperature;humidity
14101;DHT22;7127;49.372;8.166;2022-08-16T00:00:32;24.90;49.00
14101;DHT22;7127;49.372;8.166;2022-08-16T00:03:01;24.90;49.10
14101;DHT22;7127;49.372;8.166;2022-08-16T00:05:29;24.80;49.00
14101;DHT22;7127;49.372;8.166;2022-08-16T00:07:57;24.80;49.00
14101;DHT22;7127;49.372;8.166;2022-08-16T00:10:27;24.80;49.10
14101;DHT22;7127;49.372;8.166;2022-08-16T00:12:58;24.70;49.10
14101;DHT22;7127;49.372;8.166;2022-08-16T00:15:32;24.70;49.10
14101;DHT22;7127;49.372;8.166;2022-08-16T00:18:01;24.70;49.20
14101;DHT22;7127;49.372;8.166;2022-08-16T00:20:29;24.70;49.20
14101;DHT22;7127;49.372;8.166;2022-08-16T00:22:57;24.60;49.20
14101;DHT22;7127;49.372;8.166;2022-08-16T00:25:25;24.60;49.30
14101;DHT22;7127;49.372;8.166;2022-08-16T00:27:52;24.60;49.30
14101;DHT22;7127;49.372;8.166;2022-08-16T00:30:20;24.60;49.50
14101;DHT22;7127;49.372;8.166;2022-08-16T00:32:50;24.50;49.50
14101;DHT22;7127;49.372;8.166;2022-08-16T00:35:21;24.50;49.50
14101;DHT22;7127;49.372;8.166;2022-08-16T00:37:48;24.50;49.50
14101;DHT22;7127;49.372;8.166;2022-08-16T00:40:19;24.50;49.50
14101;DHT22;7127;49.372;8.166;2022-08-16T00:42:46;24.50;49.50
14101;DHT22;7127;49.372;8.166;2022-08-16T00:45:24;24.40;49.40
14101;DHT22;7127;49.372;8.166;2022-08-16T00:47:54;24.40;49.80
14101;DHT22;7127;49.372;8.166;2022-08-16T00:50:25;24.40;49.60
14101;DHT22;7127;49.372;8.166;2022-08-16T00:52:52;24.40;49.70
14101;DHT22;7127;49.372;8.166;2022-08-16T00:55:21;24.40;49.60
14101;DHT22;7127;49.372;8.166;2022-08-16T00:57:54;24.40;49.70
14101;DHT22;7127;49.372;8.166;2022-08-16T01:00:22;24.40;49.70
14101;DHT22;7127;49.372;8.166;2022-08-16T01:02:52;24.40;49.70
14101;DHT22;7127;49.372;8.166;2022-08-16T01:05:19;24.40;49.80
14101;DHT22;7127;49.372;8.166;2022-08-16T01:07:48;24.40;49.80
14101;DHT22;7127;49.372;8.166;2022-08-16T01:10:15;24.40;49.90
14101;DHT22;7127;49.372;8.166;2022-08-16T01:12:42;24.40;49.90
14101;DHT22;7127;49.372;8.166;2022-08-16T01:15:10;24.40;49.90
14101;DHT22;7127;49.372;8.166;2022-08-16T01:17:38;24.30;49.90
14101;DHT22;7127;49.372;8.166;2022-08-16T01:20:09;24.40;49.90
14101;DHT22;7127;49.372;8.166;2022-08-16T01:22:46;24.40;49.90
14101;DHT22;7127;49.372;8.166;2022-08-16T01:25:21;24.30;50.00
14101;DHT22;7127;49.372;8.166;2022-08-16T01:27:54;24.30;50.00
14101;DHT22;7127;49.372;8.166;2022-08-16T01:30:26;24.30;50.00
14101;DHT22;7127;49.372;8.166;2022-08-16T01:32:58;24.20;49.90
14101;DHT22;7127;49.372;8.166;2022-08-16T01:35:29;24.20;49.90
14101;DHT22;7127;49.372;8.166;2022-08-16T01:38:14;24.20;50.00
14101;DHT22;7127;49.372;8.166;2022-08-16T01:40:43;24.20;50.30
14101;DHT22;7127;49.372;8.166;2022-08-16T01:43:11;24.10;50.00
14101;DHT22;7127;49.372;8.166;2022-08-16T01:45:38;24.10;50.00
14101;DHT22;7127;49.372;8.166;2022-08-16T01:48:05;24.00;50.00
14101;DHT22;7127;49.372;8.166;2022-08-16T01:50:33;24.00;50.00
14101;DHT22;7127;49.372;8.166;2022-08-16T01:53:01;24.00;50.10
14101;DHT22;7127;49.372;8.166;2022-08-16T01:55:28;24.00;50.20
14101;DHT22;7127;49.372;8.166;2022-08-16T01:57:57;23.90;50.30
14101;DHT22;7127;49.372;8.166;2022-08-16T02:00:25;23.90;50.30
14101;DHT22;7127;49.372;8.166;2022-08-16T02:02:53;23.80;50.20
14101;DHT22;7127;49.372;8.166;2022-08-16T02:05:20;23.80;50.30
14101;DHT22;7127;49.372;8.166;2022-08-16T02:07:47;23.70;50.30
14101;DHT22;7127;49.372;8.166;2022-08-16T02:10:14;23.70;50.40
14101;DHT22;7127;49.372;8.166;2022-08-16T02:12:42;23.60;50.50
14101;DHT22;7127;49.372;8.166;2022-08-16T02:15:15;23.60;50.50
14101;DHT22;7127;49.372;8.166;2022-08-16T02:17:42;23.60;50.60
14101;DHT22;7127;49.372;8.166;2022-08-16T02:20:10;23.60;50.60
14101;DHT22;7127;49.372;8.166;2022-08-16T02:22:37;23.50;50.70
14101;DHT22;7127;49.372;8.166;2022-08-16T02:25:10;23.50;50.70
14101;DHT22;7127;49.372;8.166;2022-08-16T02:27:39;23.50;51.00
14101;DHT22;7127;49.372;8.166;2022-08-16T02:30:09;23.50;50.80
14101;DHT22;7127;49.372;8.166;2022-08-16T02:32:40;23.50;51.00
14101;DHT22;7127;49.372;8.166;2022-08-16T02:35:08;23.50;51.00
14101;DHT22;7127;49.372;8.166;2022-08-16T02:37:35;23.50;51.00
14101;DHT22;7127;49.372;8.166;2022-08-16T02:40:03;23.50;51.00
14101;DHT22;7127;49.372;8.166;2022-08-16T02:42:30;23.50;51.00
14101;DHT22;7127;49.372;8.166;2022-08-16T02:44:59;23.50;51.00
14101;DHT22;7127;49.372;8.166;2022-08-16T02:47:26;23.50;51.10
14101;DHT22;7127;49.372;8.166;2022-08-16T02:49:55;23.50;51.00
14101;DHT22;7127;49.372;8.166;2022-08-16T02:52:22;23.50;51.10
14101;DHT22;7127;49.372;8.166;2022-08-16T02:54:49;23.50;51.10
14101;DHT22;7127;49.372;8.166;2022-08-16T02:57:16;23.50;51.10
14101;DHT22;7127;49.372;8.166;2022-08-16T02:59:44;23.50;51.10
14101;DHT22;7127;49.372;8.166;2022-08-16T03:02:11;23.50;51.10
14101;DHT22;7127;49.372;8.166;2022-08-16T03:04:39;23.50;51.10
14101;DHT22;7127;49.372;8.166;2022-08-16T03:07:08;23.50;51.10
14101;DHT22;7127;49.372;8.166;2022-08-16T03:09:36;23.50;51.10
14101;DHT22;7127;49.372;8.166;2022-08-16T03:12:04;23.50;51.10
14101;DHT22;7127;49.372;8.166;2022-08-16T03:14:32;23.50;51.10
14101;DHT22;7127;49.372;8.166;2022-08-16T03:16:59;23.50;51.20
14101;DHT22;7127;49.372;8.166;2022-08-16T03:19:28;23.40;51.10
14101;DHT22;7127;49.372;8.166;2022-08-16T03:21:56;23.40;51.20
14101;DHT22;7127;49.372;8.166;2022-08-16T03:24:24;23.40;51.30
14101;DHT22;7127;49.372;8.166;2022-08-16T03:26:52;23.40;51.30
14101;DHT22;7127;49.372;8.166;2022-08-16T03:29:20;23.40;51.40
14101;DHT22;7127;49.372;8.166;2022-08-16T03:31:47;23.30;51.30
14101;DHT22;7127;49.372;8.166;2022-08-16T03:34:16;23.30;51.40
14101;DHT22;7127;49.372;8.166;2022-08-16T03:36:43;23.30;51.40
14101;DHT22;7127;49.372;8.166;2022-08-16T03:39:10;23.30;51.40
14101;DHT22;7127;49.372;8.166;2022-08-16T03:41:39;23.30;51.40
14101;DHT22;7127;49.372;8.166;2022-08-16T03:44:06;23.30;51.50
14101;DHT22;7127;49.372;8.166;2022-08-16T03:46:34;23.20;51.40
14101;DHT22;7127;49.372;8.166;2022-08-16T03:49:01;23.20;51.50
14101;DHT22;7127;49.372;8.166;2022-08-16T03:51:28;23.20;51.50
14101;DHT22;7127;49.372;8.166;2022-08-16T03:53:56;23.20;51.50
14101;DHT22;7127;49.372;8.166;2022-08-16T03:56:23;23.20;51.50
14101;DHT22;7127;49.372;8.166;2022-08-16T03:58:53;23.20;51.50
14101;DHT22;7127;49.372;8.166;2022-08-16T04:01:21;23.20;51.60
14101;DHT22;7127;49.372;8.166;2022-08-16T04:03:49;23.20;51.50
14101;DHT22;7127;49.372;8.166;2022-08-16T04:06:16;23.20;51.50
14101;DHT22;7127;49.372;8.166;2022-08-16T04:08:43;23.10;51.50
14101;DHT22;7127;49.372;8.166;2022-08-16T04:11:11;23.10;51.60
14101;DHT22;7127;49.372;8.166;2022-08-16T04:13:38;23.10;51.70
14101;DHT22;7127;49.372;8.166;2022-08-16T04:16:07;23.10;51.70
14101;DHT22;7127;49.372;8.166;2022-08-16T04:18:36;23.10;52.10
14101;DHT22;7127;49.372;8.166;2022-08-16T04:21:07;23.10;51.90
14101;DHT22;7127;49.372;8.166;2022-08-16T04:23:34;23.10;51.90
14101;DHT22;7127;49.372;8.166;2022-08-16T04:26:03;23.10;51.90
14101;DHT22;7127;49.372;8.166;2022-08-16T04:28:31;23.10;51.90
14101;DHT22;7127;49.372;8.166;2022-08-16T04:30:58;23.10;51.90
14101;DHT22;7127;49.372;8.166;2022-08-16T04:33:26;23.10;51.90
14101;DHT22;7127;49.372;8.166;2022-08-16T04:35:55;23.10;51.90
14101;DHT22;7127;49.372;8.166;2022-08-16T04:38:22;23.10;51.90
14101;DHT22;7127;49.372;8.166;2022-08-16T04:40:50;23.10;51.90
14101;DHT22;7127;49.372;8.166;2022-08-16T04:43:17;23.10;52.00
14101;DHT22;7127;49.372;8.166;2022-08-16T04:45:45;23.10;52.00
14101;DHT22;7127;49.372;8.166;2022-08-16T04:48:13;23.10;52.00
14101;DHT22;7127;49.372;8.166;2022-08-16T04:50:41;23.10;52.00
14101;DHT22;7127;49.372;8.166;2022-08-16T04:53:09;23.10;52.00
14101;DHT22;7127;49.372;8.166;2022-08-16T04:55:37;23.10;52.00
14101;DHT22;7127;49.372;8.166;2022-08-16T04:58:05;23.10;52.10
14101;DHT22;7127;49.372;8.166;2022-08-16T05:00:33;23.10;52.10
14101;DHT22;7127;49.372;8.166;2022-08-16T05:03:03;23.20;52.20
14101;DHT22;7127;49.372;8.166;2022-08-16T05:05:31;23.20;52.20
14101;DHT22;7127;49.372;8.166;2022-08-16T05:08:00;23.20;52.20
14101;DHT22;7127;49.372;8.166;2022-08-16T05:10:29;23.20;52.20
14101;DHT22;7127;49.372;8.166;2022-08-16T05:12:56;23.20;52.20
14101;DHT22;7127;49.372;8.166;2022-08-16T05:15:24;23.20;52.10
14101;DHT22;7127;49.372;8.166;2022-08-16T05:17:51;23.20;52.00
14101;DHT22;7127;49.372;8.166;2022-08-16T05:20:21;23.20;52.10
14101;DHT22;7127;49.372;8.166;2022-08-16T05:22:48;23.20;52.10
14101;DHT22;7127;49.372;8.166;2022-08-16T05:25:17;23.20;52.10
14101;DHT22;7127;49.372;8.166;2022-08-16T05:27:44;23.20;52.30
14101;DHT22;7127;49.372;8.166;2022-08-16T05:30:13;23.10;52.10
14101;DHT22;7127;49.372;8.166;2022-08-16T05:32:41;23.10;52.10
14101;DHT22;7127;49.372;8.166;2022-08-16T05:35:09;23.10;52.20
14101;DHT22;7127;49.372;8.166;2022-08-16T05:37:38;23.10;52.30
14101;DHT22;7127;49.372;8.166;2022-08-16T05:40:08;23.10;52.30
14101;DHT22;7127;49.372;8.166;2022-08-16T05:42:38;23.20;52.50
14101;DHT22;7127;49.372;8.166;2022-08-16T05:45:06;23.10;52.40
14101;DHT22;7127;49.372;8.166;2022-08-16T05:47:34;23.20;52.50
14101;DHT22;7127;49.372;8.166;2022-08-16T05:50:01;23.20;52.40
14101;DHT22;7127;49.372;8.166;2022-08-16T05:52:28;23.20;52.40
14101;DHT22;7127;49.372;8.166;2022-08-16T05:54:56;23.20;52.40
14101;DHT22;7127;49.372;8.166;2022-08-16T05:57:23;23.20;52.40
14101;DHT22;7127;49.372;8.166;2022-08-16T05:59:51;23.20;52.40
14101;DHT22;7127;49.372;8.166;2022-08-16T06:02:19;23.30;52.50
14101;DHT22;7127;49.372;8.166;2022-08-16T06:04:51;23.20;52.50
14101;DHT22;7127;49.372;8.166;2022-08-16T06:07:18;23.20;52.60
14101;DHT22;7127;49.372;8.166;2022-08-16T06:09:46;23.30;52.70
14101;DHT22;7127;49.372;8.166;2022-08-16T06:12:15;23.30;52.70
14101;DHT22;7127;49.372;8.166;2022-08-16T06:14:43;23.30;52.70
14101;DHT22;7127;49.372;8.166;2022-08-16T06:17:12;23.30;52.70
14101;DHT22;7127;49.372;8.166;2022-08-16T06:19:41;23.30;52.70
14101;DHT22;7127;49.372;8.166;2022-08-16T06:22:08;23.30;52.70
14101;DHT22;7127;49.372;8.166;2022-08-16T06:24:36;23.40;52.80
14101;DHT22;7127;49.372;8.166;2022-08-16T06:27:03;23.40;52.80
14101;DHT22;7127;49.372;8.166;2022-08-16T06:29:31;23.40;52.80
14101;DHT22;7127;49.372;8.166;2022-08-16T06:31:58;23.40;52.80
14101;DHT22;7127;49.372;8.166;2022-08-16T06:34:27;23.50;52.90
14101;DHT22;7127;49.372;8.166;2022-08-16T06:36:54;23.50;53.00
14101;DHT22;7127;49.372;8.166;2022-08-16T06:39:22;23.60;53.10
14101;DHT22;7127;49.372;8.166;2022-08-16T06:41:52;23.60;53.00
14101;DHT22;7127;49.372;8.166;2022-08-16T06:44:22;23.80;53.20
14101;DHT22;7127;49.372;8.166;2022-08-16T06:46:50;23.80;53.20
14101;DHT22;7127;49.372;8.166;2022-08-16T06:49:17;23.90;53.10
14101;DHT22;7127;49.372;8.166;2022-08-16T06:51:46;23.90;53.10
14101;DHT22;7127;49.372;8.166;2022-08-16T06:54:13;24.00;53.10
14101;DHT22;7127;49.372;8.166;2022-08-16T06:56:40;24.10;53.10
14101;DHT22;7127;49.372;8.166;2022-08-16T06:59:07;24.10;53.10
14101;DHT22;7127;49.372;8.166;2022-08-16T07:01:34;24.20;53.10
14101;DHT22;7127;49.372;8.166;2022-08-16T07:04:02;24.30;53.00
14101;DHT22;7127;49.372;8.166;2022-08-16T07:06:29;24.30;52.90
14101;DHT22;7127;49.372;8.166;2022-08-16T07:08:58;24.40;52.80
14101;DHT22;7127;49.372;8.166;2022-08-16T07:11:25;24.50;52.80
14101;DHT22;7127;49.372;8.166;2022-08-16T07:13:52;24.50;52.60
14101;DHT22;7127;49.372;8.166;2022-08-16T07:16:19;24.60;52.60
14101;DHT22;7127;49.372;8.166;2022-08-16T07:18:47;24.60;52.50
14101;DHT22;7127;49.372;8.166;2022-08-16T07:21:14;24.70;52.60
14101;DHT22;7127;49.372;8.166;2022-08-16T07:23:42;24.70;52.50
14101;DHT22;7127;49.372;8.166;2022-08-16T07:26:17;24.70;52.50
14101;DHT22;7127;49.372;8.166;2022-08-16T07:28:44;24.80;52.60
14101;DHT22;7127;49.372;8.166;2022-08-16T07:31:12;24.90;52.60
14101;DHT22;7127;49.372;8.166;2022-08-16T07:33:39;24.90;52.60
14101;DHT22;7127;49.372;8.166;2022-08-16T07:36:07;25.00;52.60
14101;DHT22;7127;49.372;8.166;2022-08-16T07:38:35;25.10;52.60
14101;DHT22;7127;49.372;8.166;2022-08-16T07:41:03;25.20;52.60
14101;DHT22;7127;49.372;8.166;2022-08-16T07:43:32;25.20;52.40
14101;DHT22;7127;49.372;8.166;2022-08-16T07:45:59;25.30;52.40
14101;DHT22;7127;49.372;8.166;2022-08-16T07:48:26;25.40;52.30
14101;DHT22;7127;49.372;8.166;2022-08-16T07:50:54;25.40;52.20
14101;DHT22;7127;49.372;8.166;2022-08-16T07:53:21;25.50;52.20
14101;DHT22;7127;49.372;8.166;2022-08-16T07:55:48;25.60;52.20
14101;DHT22;7127;49.372;8.166;2022-08-16T07:58:15;25.60;52.10
14101;DHT22;7127;49.372;8.166;2022-08-16T08:00:44;25.60;52.00
14101;DHT22;7127;49.372;8.166;2022-08-16T08:03:11;25.80;52.00
14101;DHT22;7127;49.372;8.166;2022-08-16T08:05:38;25.80;51.90
14101;DHT22;7127;49.372;8.166;2022-08-16T08:08:06;25.80;51.90
14101;DHT22;7127;49.372;8.166;2022-08-16T08:10:33;25.90;51.90
14101;DHT22;7127;49.372;8.166;2022-08-16T08:13:00;26.00;51.90
14101;DHT22;7127;49.372;8.166;2022-08-16T08:15:27;26.00;51.90
14101;DHT22;7127;49.372;8.166;2022-08-16T08:17:56;26.10;52.00
14101;DHT22;7127;49.372;8.166;2022-08-16T08:20:27;26.10;51.90
14101;DHT22;7127;49.372;8.166;2022-08-16T08:22:56;26.30;52.00
14101;DHT22;7127;49.372;8.166;2022-08-16T08:25:23;26.30;51.90
14101;DHT22;7127;49.372;8.166;2022-08-16T08:27:51;26.50;51.90
14101;DHT22;7127;49.372;8.166;2022-08-16T08:30:18;26.60;51.90
14101;DHT22;7127;49.372;8.166;2022-08-16T08:32:45;26.70;51.80
14101;DHT22;7127;49.372;8.166;2022-08-16T08:35:14;26.90;51.70
14101;DHT22;7127;49.372;8.166;2022-08-16T08:37:41;27.00;51.60
14101;DHT22;7127;49.372;8.166;2022-08-16T08:40:10;27.10;51.50
14101;DHT22;7127;49.372;8.166;2022-08-16T08:42:38;27.30;51.30
14101;DHT22;7127;49.372;8.166;2022-08-16T08:45:09;27.40;51.30
14101;DHT22;7127;49.372;8.166;2022-08-16T08:47:37;27.50;51.00
14101;DHT22;7127;49.372;8.166;2022-08-16T08:50:05;27.60;50.70
14101;DHT22;7127;49.372;8.166;2022-08-16T08:52:34;27.70;50.50
14101;DHT22;7127;49.372;8.166;2022-08-16T08:55:02;27.70;50.30
14101;DHT22;7127;49.372;8.166;2022-08-16T08:57:30;27.80;50.20
14101;DHT22;7127;49.372;8.166;2022-08-16T08:59:57;27.90;50.10
14101;DHT22;7127;49.372;8.166;2022-08-16T09:02:24;27.90;50.40
14101;DHT22;7127;49.372;8.166;2022-08-16T09:04:51;28.00;49.80
14101;DHT22;7127;49.372;8.166;2022-08-16T09:07:19;28.00;49.70
14101;DHT22;7127;49.372;8.166;2022-08-16T09:09:48;28.10;49.70
14101;DHT22;7127;49.372;8.166;2022-08-16T09:12:15;28.10;49.60
14101;DHT22;7127;49.372;8.166;2022-08-16T09:14:43;28.20;49.70
14101;DHT22;7127;49.372;8.166;2022-08-16T09:17:11;28.20;50.20
14101;DHT22;7127;49.372;8.166;2022-08-16T09:19:38;28.30;49.60
14101;DHT22;7127;49.372;8.166;2022-08-16T09:22:08;28.40;49.40
14101;DHT22;7127;49.372;8.166;2022-08-16T09:24:36;28.40;49.10
14101;DHT22;7127;49.372;8.166;2022-08-16T09:27:04;28.60;49.00
14101;DHT22;7127;49.372;8.166;2022-08-16T09:29:31;28.60;48.80
14101;DHT22;7127;49.372;8.166;2022-08-16T09:31:58;28.70;48.60
14101;DHT22;7127;49.372;8.166;2022-08-16T09:34:25;28.70;48.40
14101;DHT22;7127;49.372;8.166;2022-08-16T09:36:53;28.80;48.10
14101;DHT22;7127;49.372;8.166;2022-08-16T09:39:22;28.70;47.60
14101;DHT22;7127;49.372;8.166;2022-08-16T09:41:49;28.80;47.60
14101;DHT22;7127;49.372;8.166;2022-08-16T09:44:20;28.80;47.60
14101;DHT22;7127;49.372;8.166;2022-08-16T09:46:48;28.70;47.50
14101;DHT22;7127;49.372;8.166;2022-08-16T09:49:15;28.70;47.50
14101;DHT22;7127;49.372;8.166;2022-08-16T09:51:42;28.70;47.50
14101;DHT22;7127;49.372;8.166;2022-08-16T09:54:10;28.70;47.50
14101;DHT22;7127;49.372;8.166;2022-08-16T09:56:39;28.70;47.50
14101;DHT22;7127;49.372;8.166;2022-08-16T09:59:08;28.70;47.50
14101;DHT22;7127;49.372;8.166;2022-08-16T10:01:38;28.80;47.60
14101;DHT22;7127;49.372;8.166;2022-08-16T10:04:06;28.80;47.60
14101;DHT22;7127;49.372;8.166;2022-08-16T10:06:34;28.90;47.70
14101;DHT22;7127;49.372;8.166;2022-08-16T10:09:02;28.90;47.60
14101;DHT22;7127;49.372;8.166;2022-08-16T10:11:29;29.00;47.70
14101;DHT22;7127;49.372;8.166;2022-08-16T10:14:13;29.00;47.50
14101;DHT22;7127;49.372;8.166;2022-08-16T10:16:42;29.10;47.50
14101;DHT22;7127;49.372;8.166;2022-08-16T10:19:10;29.20;47.20
14101;DHT22;7127;49.372;8.166;2022-08-16T10:21:37;29.20;47.10
14101;DHT22;7127;49.372;8.166;2022-08-16T10:24:05;29.30;47.10
14101;DHT22;7127;49.372;8.166;2022-08-16T10:26:33;29.30;46.90
14101;DHT22;7127;49.372;8.166;2022-08-16T10:29:00;29.40;47.00
14101;DHT22;7127;49.372;8.166;2022-08-16T10:31:28;29.50;47.10
14101;DHT22;7127;49.372;8.166;2022-08-16T10:33:56;29.50;47.10
14101;DHT22;7127;49.372;8.166;2022-08-16T10:36:23;29.60;47.10
14101;DHT22;7127;49.372;8.166;2022-08-16T10:38:50;29.70;47.10
14101;DHT22;7127;49.372;8.166;2022-08-16T10:41:17;29.80;47.10
14101;DHT22;7127;49.372;8.166;2022-08-16T10:43:45;29.90;47.00
14101;DHT22;7127;49.372;8.166;2022-08-16T10:46:13;30.00;46.60
14101;DHT22;7127;49.372;8.166;2022-08-16T10:48:42;30.20;46.40
14101;DHT22;7127;49.372;8.166;2022-08-16T10:51:11;30.30;46.20
14101;DHT22;7127;49.372;8.166;2022-08-16T10:53:38;30.40;45.90
14101;DHT22;7127;49.372;8.166;2022-08-16T10:56:07;30.50;45.50
14101;DHT22;7127;49.372;8.166;2022-08-16T10:58:36;30.60;45.40
14101;DHT22;7127;49.372;8.166;2022-08-16T11:01:05;30.60;45.20
14101;DHT22;7127;49.372;8.166;2022-08-16T11:03:33;30.80;45.10
14101;DHT22;7127;49.372;8.166;2022-08-16T11:06:01;30.80;44.80
14101;DHT22;7127;49.372;8.166;2022-08-16T11:08:31;30.90;44.70
14101;DHT22;7127;49.372;8.166;2022-08-16T11:10:58;31.00;44.60
14101;DHT22;7127;49.372;8.166;2022-08-16T11:13:26;31.00;44.60
14101;DHT22;7127;49.372;8.166;2022-08-16T11:15:54;31.10;44.30
14101;DHT22;7127;49.372;8.166;2022-08-16T11:18:22;31.30;44.40
14101;DHT22;7127;49.372;8.166;2022-08-16T11:20:49;31.40;43.80
14101;DHT22;7127;49.372;8.166;2022-08-16T11:23:16;31.40;43.70
14101;DHT22;7127;49.372;8.166;2022-08-16T11:25:45;31.50;43.60
14101;DHT22;7127;49.372;8.166;2022-08-16T11:28:13;31.50;43.20
14101;DHT22;7127;49.372;8.166;2022-08-16T11:30:41;31.60;43.20
14101;DHT22;7127;49.372;8.166;2022-08-16T11:33:08;31.70;42.80
14101;DHT22;7127;49.372;8.166;2022-08-16T11:35:36;31.70;42.70
14101;DHT22;7127;49.372;8.166;2022-08-16T11:38:05;31.70;42.60
14101;DHT22;7127;49.372;8.166;2022-08-16T11:40:34;31.70;42.50
14101;DHT22;7127;49.372;8.166;2022-08-16T11:43:05;31.70;42.30
14101;DHT22;7127;49.372;8.166;2022-08-16T11:45:32;31.70;42.20
14101;DHT22;7127;49.372;8.166;2022-08-16T11:48:00;31.70;42.20
14101;DHT22;7127;49.372;8.166;2022-08-16T11:50:28;31.70;41.90
14101;DHT22;7127;49.372;8.166;2022-08-16T11:52:57;31.70;41.90
14101;DHT22;7127;49.372;8.166;2022-08-16T11:55:24;31.70;41.90
14101;DHT22;7127;49.372;8.166;2022-08-16T11:57:51;31.70;42.00
14101;DHT22;7127;49.372;8.166;2022-08-16T12:00:20;31.70;42.00
14101;DHT22;7127;49.372;8.166;2022-08-16T12:02:47;31.70;41.80
14101;DHT22;7127;49.372;8.166;2022-08-16T12:05:15;31.70;41.80
14101;DHT22;7127;49.372;8.166;2022-08-16T12:07:53;31.80;41.80
14101;DHT22;7127;49.372;8.166;2022-08-16T12:10:22;31.80;41.80
14101;DHT22;7127;49.372;8.166;2022-08-16T12:12:49;31.80;41.80
14101;DHT22;7127;49.372;8.166;2022-08-16T12:15:18;31.80;41.80
14101;DHT22;7127;49.372;8.166;2022-08-16T12:17:45;31.90;41.80
14101;DHT22;7127;49.372;8.166;2022-08-16T12:20:15;32.00;41.80
14101;DHT22;7127;49.372;8.166;2022-08-16T12:22:43;32.00;41.60
14101;DHT22;7127;49.372;8.166;2022-08-16T12:25:14;32.00;41.50
14101;DHT22;7127;49.372;8.166;2022-08-16T12:27:43;32.10;41.40
14101;DHT22;7127;49.372;8.166;2022-08-16T12:30:13;32.10;41.40
14101;DHT22;7127;49.372;8.166;2022-08-16T12:32:41;32.20;41.30
14101;DHT22;7127;49.372;8.166;2022-08-16T12:35:10;32.30;41.20
14101;DHT22;7127;49.372;8.166;2022-08-16T12:37:37;32.30;40.90
14101;DHT22;7127;49.372;8.166;2022-08-16T12:40:07;32.40;40.70
14101;DHT22;7127;49.372;8.166;2022-08-16T12:42:35;32.40;40.70
14101;DHT22;7127;49.372;8.166;2022-08-16T12:45:04;32.40;40.60
14101;DHT22;7127;49.372;8.166;2022-08-16T12:47:31;32.50;40.30
14101;DHT22;7127;49.372;8.166;2022-08-16T12:50:16;32.50;40.30
14101;DHT22;7127;49.372;8.166;2022-08-16T12:52:43;32.50;40.80
14101;DHT22;7127;49.372;8.166;2022-08-16T12:55:10;32.50;40.00
14101;DHT22;7127;49.372;8.166;2022-08-16T12:57:38;32.40;39.90
14101;DHT22;7127;49.372;8.166;2022-08-16T13:00:10;32.40;39.90
14101;DHT22;7127;49.372;8.166;2022-08-16T13:02:38;32.40;39.80
14101;DHT22;7127;49.372;8.166;2022-08-16T13:05:06;32.40;40.40
14101;DHT22;7127;49.372;8.166;2022-08-16T13:07:33;32.40;39.60
14101;DHT22;7127;49.372;8.166;2022-08-16T13:10:00;32.40;39.50
14101;DHT22;7127;49.372;8.166;2022-08-16T13:12:34;32.40;39.50
14101;DHT22;7127;49.372;8.166;2022-08-16T13:15:06;32.40;39.60
14101;DHT22;7127;49.372;8.166;2022-08-16T13:17:36;32.50;39.60
14101;DHT22;7127;49.372;8.166;2022-08-16T13:20:05;32.50;39.70
14101;DHT22;7127;49.372;8.166;2022-08-16T13:22:33;32.60;39.60
14101;DHT22;7127;49.372;8.166;2022-08-16T13:25:00;32.60;39.60
14101;DHT22;7127;49.372;8.166;2022-08-16T13:27:28;32.60;39.40
14101;DHT22;7127;49.372;8.166;2022-08-16T13:29:54;32.60;39.30
14101;DHT22;7127;49.372;8.166;2022-08-16T13:32:23;32.80;39.30
14101;DHT22;7127;49.372;8.166;2022-08-16T13:34:50;32.80;39.10
14101;DHT22;7127;49.372;8.166;2022-08-16T13:37:17;32.80;38.90
14101;DHT22;7127;49.372;8.166;2022-08-16T13:39:44;32.80;38.90
14101;DHT22;7127;49.372;8.166;2022-08-16T13:42:11;32.90;38.90
14101;DHT22;7127;49.372;8.166;2022-08-16T13:44:38;32.90;38.80
14101;DHT22;7127;49.372;8.166;2022-08-16T13:47:06;33.00;38.70
14101;DHT22;7127;49.372;8.166;2022-08-16T13:49:34;33.00;38.50
14101;DHT22;7127;49.372;8.166;2022-08-16T13:52:01;33.10;38.60
14101;DHT22;7127;49.372;8.166;2022-08-16T13:54:29;33.10;38.50
14101;DHT22;7127;49.372;8.166;2022-08-16T13:56:56;33.10;38.30
14101;DHT22;7127;49.372;8.166;2022-08-16T13:59:23;33.20;38.30
14101;DHT22;7127;49.372;8.166;2022-08-16T14:01:51;33.20;38.20
14101;DHT22;7127;49.372;8.166;2022-08-16T14:04:18;33.20;38.10
14101;DHT22;7127;49.372;8.166;2022-08-16T14:06:47;33.20;38.00
14101;DHT22;7127;49.372;8.166;2022-08-16T14:09:14;33.20;37.80
14101;DHT22;7127;49.372;8.166;2022-08-16T14:11:41;33.20;37.80
14101;DHT22;7127;49.372;8.166;2022-08-16T14:14:08;33.20;37.70
14101;DHT22;7127;49.372;8.166;2022-08-16T14:16:35;33.20;37.60
14101;DHT22;7127;49.372;8.166;2022-08-16T14:19:02;33.20;37.80
14101;DHT22;7127;49.372;8.166;2022-08-16T14:21:31;33.30;37.60
14101;DHT22;7127;49.372;8.166;2022-08-16T14:23:59;33.30;37.50
14101;DHT22;7127;49.372;8.166;2022-08-16T14:26:27;33.30;37.30
14101;DHT22;7127;49.372;8.166;2022-08-16T14:28:54;33.30;37.40
14101;DHT22;7127;49.372;8.166;2022-08-16T14:31:21;33.30;37.40
14101;DHT22;7127;49.372;8.166;2022-08-16T14:33:48;33.30;37.20
14101;DHT22;7127;49.372;8.166;2022-08-16T14:36:15;33.30;37.10
14101;DHT22;7127;49.372;8.166;2022-08-16T14:38:42;33.40;37.00
14101;DHT22;7127;49.372;8.166;2022-08-16T14:41:10;33.30;36.90
14101;DHT22;7127;49.372;8.166;2022-08-16T14:43:37;33.40;36.80
14101;DHT22;7127;49.372;8.166;2022-08-16T14:46:04;33.30;36.60
14101;DHT22;7127;49.372;8.166;2022-08-16T14:48:31;33.30;36.40
14101;DHT22;7127;49.372;8.166;2022-08-16T14:50:58;33.30;36.40
14101;DHT22;7127;49.372;8.166;2022-08-16T14:53:25;33.30;36.90
14101;DHT22;7127;49.372;8.166;2022-08-16T14:55:52;33.30;36.70
14101;DHT22;7127;49.372;8.166;2022-08-16T14:58:21;33.20;36.60
14101;DHT22;7127;49.372;8.166;2022-08-16T15:00:49;33.20;36.40
14101;DHT22;7127;49.372;8.166;2022-08-16T15:03:18;33.20;36.40
14101;DHT22;7127;49.372;8.166;2022-08-16T15:05:48;33.20;36.40
14101;DHT22;7127;49.372;8.166;2022-08-16T15:08:15;33.20;36.70
14101;DHT22;7127;49.372;8.166;2022-08-16T15:10:42;33.20;36.50
14101;DHT22;7127;49.372;8.166;2022-08-16T15:13:10;33.20;36.40
14101;DHT22;7127;49.372;8.166;2022-08-16T15:15:40;33.20;36.30
14101;DHT22;7127;49.372;8.166;2022-08-16T15:18:08;33.20;36.20
14101;DHT22;7127;49.372;8.166;2022-08-16T15:20:38;33.20;36.40
14101;DHT22;7127;49.372;8.166;2022-08-16T15:23:07;33.20;36.50
14101;DHT22;7127;49.372;8.166;2022-08-16T15:25:36;33.20;36.50
14101;DHT22;7127;49.372;8.166;2022-08-16T15:28:06;33.20;36.40
14101;DHT22;7127;49.372;8.166;2022-08-16T15:30:35;33.20;36.50
14101;DHT22;7127;49.372;8.166;2022-08-16T15:33:06;33.20;36.70
14101;DHT22;7127;49.372;8.166;2022-08-16T15:35:34;33.20;36.60
14101;DHT22;7127;49.372;8.166;2022-08-16T15:38:02;33.10;36.40
14101;DHT22;7127;49.372;8.166;2022-08-16T15:40:30;33.20;36.40
14101;DHT22;7127;49.372;8.166;2022-08-16T15:42:57;33.10;36.40
14101;DHT22;7127;49.372;8.166;2022-08-16T15:45:26;33.10;36.30
14101;DHT22;7127;49.372;8.166;2022-08-16T15:48:12;33.10;37.00
14101;DHT22;7127;49.372;8.166;2022-08-16T15:50:40;33.10;36.20